Detall de PIREP

Printer-friendly versionPDF version

[2017/02/19 10:54:00]
Flight IATA:CT3241
Pilot Number:012
Company ICAO:CAT
Aircraft Type:AT72/F
PAX:54
Departing Airport: LIRF
Destination Airport: LEPA
Alternate Airport:LEBL
Online: VATSIM
Route:ESINO/N0250F220 Z924 SUPUX/N0253F230 UZ924 RIPAL UM603 MORSS
Flight Level:F230
No Slew and time accel
No pause
Crash detect
Detect pilot in Cockpit between each 30 and 45 minutes
10:54 Zero fuel Weight: 40058 Lbs, Fuel Weight: 7242 Lbs
10:54 VATSIM:LIRF 191020Z VRB03KT CAVOK 13/03 Q1024 NOSIG
10:54 VATSIM:LEPA 191030Z 31001KT 9999 FEW025 SCT050 15/08 Q1025 NOSIG
10:54 Parking Brakes off
11:00 Take-off
11:00 Take off Weight: 47238 Lbs
11:00 Wind: 357º @ 003 Knots Heading: 249º
11:00 POS N41º 48´ 20´´ E012º 15´ 18´´
11:00 Flaps:1 at 130 Knots
11:00 Gear Up: 133 Knots
11:01 Flaps:0 at 145 Knots
11:15 Wind:012º@015 Knots Heading: 252º Ground Speed: 243 Knots Altitude 18973ft
11:30 Wind:007º@013 Knots Heading: 250º Ground Speed: 286 Knots Altitude 22365 ft
11:45 Wind:341º@013 Knots Heading: 253º Ground Speed: 277 Knots Altitude 22349 ft
11:50 TOC
11:50 Fuel Weight: 5722 Lb
12:00 Wind:357º@013 Knots Heading: 262º Ground Speed: 278 Knots Altitude 23339 ft
12:15 Wind:079º@007 Knots Heading: 259º Ground Speed: 283 Knots Altitude 23339 ft
12:27 TOD
12:27 Fuel Weight: 4788 Lb
12:30 Wind:097º@010 Knots Heading: 253º Ground Speed: 292 Knots Altitude 16089 ft
12:42 Flaps:1 at 191 Knots
12:43 Gear Down: 186 Knots
12:44 Flaps:2 at 148 Knots
12:45 Wind:171º@004 Knots Heading: 236º Ground Speed: 133 Knots Altitude 1250 ft
12:47 TouchDown:Rate -149 ft/min Speed: 108 Knots
12:47 VATSIM:LEPA 191230Z 22007KT 9999 FEW025 SCT055 BKN065 14/08 Q1024 NOSIG
12:47 Land
12:47 Wind:213º@008 Knots
12:47 Heading: 252º
12:47 Flight Duration: 01:47
12:47 Landing Weight: 44601 Lbs
12:47 POS N39º 32´ 53´´ E002º 44´ 47´´
12:49 Parking brakes on
12:49 Block to Block Duration: 01:55
12:49 Final Fuel: 4528 Lbls
12:49 Spent Fuel: 2713 Lbls
12:49 Flight Length: 465 NM
12:49 TOD Land Length: 76 NM

Exportar CSV

Powered by Drupal - Modified by Danger4k